createdAt,value
2019-01-22T00:00:18.471Z,-3.57
2019-01-22T00:02:47.220Z,-3.59
2019-01-22T00:05:15.719Z,-3.59
2019-01-22T00:07:44.484Z,-3.60
2019-01-22T00:10:13.415Z,-3.56
2019-01-22T00:12:41.854Z,-3.58
2019-01-22T00:15:12.763Z,-3.61
2019-01-22T00:17:41.812Z,-3.56
2019-01-22T00:20:12.738Z,-3.51
2019-01-22T00:22:41.543Z,-3.52
2019-01-22T00:25:15.082Z,-3.50
2019-01-22T00:27:43.821Z,-3.52
2019-01-22T00:30:18.658Z,-3.55
2019-01-22T00:32:47.163Z,-3.55
2019-01-22T00:35:16.228Z,-3.57
2019-01-22T00:37:45.065Z,-3.59
2019-01-22T00:40:16.606Z,-3.56
2019-01-22T00:42:45.477Z,-3.56
2019-01-22T00:45:14.614Z,-3.61
2019-01-22T00:47:43.216Z,-3.61
2019-01-22T00:50:17.423Z,-3.64
2019-01-22T00:52:46.128Z,-3.61
2019-01-22T00:55:18.102Z,-3.62
2019-01-22T00:57:46.965Z,-3.65
2019-01-22T01:00:21.297Z,-3.61
2019-01-22T01:02:50.157Z,-3.64
2019-01-22T01:05:18.975Z,-3.62
2019-01-22T01:07:47.962Z,-3.64
2019-01-22T01:10:17.702Z,-3.65
2019-01-22T01:12:46.534Z,-3.64
2019-01-22T01:15:15.863Z,-3.66
2019-01-22T01:17:44.439Z,-3.69
2019-01-22T01:20:21.356Z,-3.69
2019-01-22T01:22:49.875Z,-3.70
2019-01-22T01:25:20.840Z,-3.74
2019-01-22T01:27:49.717Z,-3.78
2019-01-22T01:30:21.452Z,-3.80
2019-01-22T01:32:50.382Z,-3.82
2019-01-22T01:35:19.137Z,-3.81
2019-01-22T01:37:47.901Z,-3.81
2019-01-22T01:40:17.673Z,-3.85
2019-01-22T01:42:46.580Z,-3.81
2019-01-22T01:45:16.554Z,-3.82
2019-01-22T01:47:45.569Z,-3.81
2019-01-22T01:50:16.240Z,-3.81
2019-01-22T01:52:45.018Z,-3.84
2019-01-22T01:55:15.980Z,-3.85
2019-01-22T01:57:44.790Z,-3.94
2019-01-22T02:00:16.936Z,-3.97
2019-01-22T02:02:45.858Z,-4.02
2019-01-22T02:05:14.724Z,-4.03
2019-01-22T02:07:43.502Z,-4.04
2019-01-22T02:10:14.926Z,-3.99
2019-01-22T02:12:49.415Z,-4.01
2019-01-22T02:15:23.666Z,-3.98
2019-01-22T02:18:03.853Z,-3.91
2019-01-22T02:20:41.445Z,-3.90
2019-01-22T02:23:18.656Z,-3.87
2019-01-22T02:25:50.424Z,-3.90
2019-01-22T02:28:36.840Z,-3.88
2019-01-22T02:31:25.650Z,-3.88
2019-01-22T02:33:57.409Z,-3.91
2019-01-22T02:36:46.753Z,-3.90
2019-01-22T02:39:24.394Z,-3.90
2019-01-22T02:41:56.178Z,-3.90
2019-01-22T02:44:44.486Z,-3.92
2019-01-22T02:47:21.619Z,-3.91
2019-01-22T02:50:02.311Z,-3.95
2019-01-22T02:52:52.057Z,-4.03
2019-01-22T02:55:23.529Z,-4.07
2019-01-22T02:58:13.329Z,-4.04
2019-01-22T03:00:57.133Z,-4.03
2019-01-22T03:03:55.721Z,-4.10
2019-01-22T03:06:51.482Z,-4.11
2019-01-22T03:09:26.220Z,-4.09
2019-01-22T03:12:07.416Z,-4.10
2019-01-22T03:14:57.077Z,-4.06
2019-01-22T03:17:34.204Z,-4.11
2019-01-22T03:20:05.959Z,-4.09
2019-01-22T03:22:45.975Z,-4.07
2019-01-22T03:25:17.449Z,-5.67
2019-01-22T03:27:55.537Z,-4.10
2019-01-22T03:30:46.600Z,-4.11
2019-01-22T03:33:33.215Z,-4.10
2019-01-22T03:36:10.657Z,-4.24
2019-01-22T03:38:54.014Z,-4.31
2019-01-22T03:41:28.854Z,-4.28
2019-01-22T03:44:09.421Z,-4.28
2019-01-22T03:47:00.527Z,-4.29
2019-01-22T03:49:32.287Z,-4.30
2019-01-22T03:52:06.951Z,-4.28
2019-01-22T03:54:53.639Z,-4.27
2019-01-22T03:57:28.050Z,-4.33
2019-01-22T03:59:56.968Z,-4.35
2019-01-22T04:02:27.060Z,-4.35
2019-01-22T04:04:55.549Z,-4.34
2019-01-22T04:07:24.246Z,-4.34
2019-01-22T04:09:54.604Z,-4.30
2019-01-22T04:12:23.402Z,-4.29
2019-01-22T04:14:52.150Z,-4.25
2019-01-22T04:17:20.632Z,-4.25
2019-01-22T04:19:49.487Z,-4.30
2019-01-22T04:22:20.483Z,-4.26
2019-01-22T04:24:55.188Z,-4.23
2019-01-22T04:27:29.958Z,-4.22
2019-01-22T04:30:21.091Z,-4.15
2019-01-22T04:32:52.852Z,-4.15
2019-01-22T04:35:30.478Z,-4.14
2019-01-22T04:38:05.075Z,-4.12
2019-01-22T04:40:53.638Z,-4.07
2019-01-22T04:43:25.400Z,-4.06
2019-01-22T04:46:03.298Z,-4.02
2019-01-22T04:48:56.213Z,-4.02
2019-01-22T04:51:33.859Z,-3.99
2019-01-22T04:54:09.610Z,-3.99
2019-01-22T04:56:59.934Z,-4.00
2019-01-22T04:59:40.766Z,-3.97
2019-01-22T05:02:30.268Z,-3.99
2019-01-22T05:05:13.843Z,-3.95
2019-01-22T05:07:45.587Z,-4.01
2019-01-22T05:10:17.321Z,-3.98
2019-01-22T05:12:58.169Z,-3.98
2019-01-22T05:15:53.895Z,-3.95
2019-01-22T05:18:58.708Z,-3.96
2019-01-22T05:21:30.181Z,-3.90
2019-01-22T05:24:31.756Z,-3.91
2019-01-22T05:27:11.966Z,-3.94
2019-01-22T05:29:46.641Z,-3.95
2019-01-22T05:32:49.675Z,-3.90
2019-01-22T05:35:51.300Z,-3.91
2019-01-22T05:38:38.052Z,-3.94
2019-01-22T05:41:09.955Z,-3.91
2019-01-22T05:43:59.951Z,-3.97
2019-01-22T05:46:31.755Z,-3.96
2019-01-22T05:49:06.763Z,-3.94
2019-01-22T05:51:38.623Z,-3.94
2019-01-22T05:54:16.247Z,-3.92
2019-01-22T05:56:53.516Z,-3.92
2019-01-22T05:59:41.766Z,-3.92
2019-01-22T06:02:13.072Z,-3.89
2019-01-22T06:05:02.861Z,-3.87
2019-01-22T06:07:42.978Z,-3.86
2019-01-22T06:10:37.160Z,-3.84
2019-01-22T06:13:17.770Z,-3.83
2019-01-22T06:16:13.349Z,-3.82
2019-01-22T06:18:47.839Z,-3.80
2019-01-22T06:21:35.794Z,-3.79
2019-01-22T06:24:19.400Z,-3.79
2019-01-22T06:26:57.112Z,-3.80
2019-01-22T06:29:31.109Z,-3.78
2019-01-22T06:32:05.595Z,-3.75
2019-01-22T06:34:55.326Z,-3.76
2019-01-22T06:37:38.768Z,-3.73
2019-01-22T06:40:22.684Z,-3.74
2019-01-22T06:43:06.316Z,-3.73
2019-01-22T06:45:44.093Z,-3.70
2019-01-22T06:48:42.017Z,-3.68
2019-01-22T06:51:25.861Z,-3.69
2019-01-22T06:54:09.560Z,-3.69
2019-01-22T06:56:50.029Z,-3.67
2019-01-22T06:59:27.179Z,-3.67
2019-01-22T07:01:58.901Z,-3.64
2019-01-22T07:04:44.960Z,-3.63
2019-01-22T07:07:25.131Z,-3.65
2019-01-22T07:10:08.734Z,-3.64
2019-01-22T07:12:52.319Z,-3.61
2019-01-22T07:15:30.092Z,-3.54
2019-01-22T07:18:23.061Z,-3.51
2019-01-22T07:21:10.864Z,-3.53
2019-01-22T07:23:54.456Z,-3.57
2019-01-22T07:26:40.985Z,-3.62
2019-01-22T07:29:18.668Z,-3.64
2019-01-22T07:31:59.376Z,-3.67
2019-01-22T07:34:39.676Z,-3.67
2019-01-22T07:37:20.066Z,-3.68
2019-01-22T07:40:11.540Z,-3.68
2019-01-22T07:42:55.369Z,-3.71
2019-01-22T07:45:32.708Z,-3.65
2019-01-22T07:48:04.201Z,-3.64
2019-01-22T07:50:57.383Z,-3.64
2019-01-22T07:53:37.404Z,-3.63
2019-01-22T07:56:17.971Z,-3.60
2019-01-22T07:58:58.383Z,-3.59
2019-01-22T08:01:57.411Z,-3.57
2019-01-22T08:04:33.492Z,-3.55
2019-01-22T08:07:29.393Z,-3.52
2019-01-22T08:10:12.697Z,-3.54
2019-01-22T08:12:44.479Z,-3.48
2019-01-22T08:15:25.370Z,-3.47
2019-01-22T08:18:15.146Z,-3.44
2019-01-22T08:20:55.379Z,-3.43
2019-01-22T08:23:35.856Z,-3.38
2019-01-22T08:26:19.453Z,-3.35
2019-01-22T08:29:02.357Z,-3.32
2019-01-22T08:32:01.128Z,-3.27
2019-01-22T08:34:50.925Z,-3.22
2019-01-22T08:37:40.283Z,-3.18
2019-01-22T08:40:23.826Z,-3.13
2019-01-22T08:43:17.792Z,-3.10
2019-01-22T08:45:52.295Z,-3.06
2019-01-22T08:48:40.557Z,-2.98
2019-01-22T08:51:43.878Z,-2.93
2019-01-22T08:54:43.308Z,-2.90
2019-01-22T08:57:30.149Z,-2.86
2019-01-22T09:00:17.115Z,-2.83
2019-01-22T09:02:57.582Z,-2.78
2019-01-22T09:05:38.075Z,-2.75
2019-01-22T09:08:15.584Z,-2.70
2019-01-22T09:11:05.606Z,-2.62
2019-01-22T09:13:52.182Z,-2.60
2019-01-22T09:16:32.598Z,-2.57
2019-01-22T09:19:16.122Z,-2.54
2019-01-22T09:22:05.765Z,-2.50
2019-01-22T09:24:43.439Z,-2.48
2019-01-22T09:27:34.880Z,-2.46
2019-01-22T09:30:35.592Z,-2.44
2019-01-22T09:33:09.881Z,-2.37
2019-01-22T09:35:47.175Z,-2.37
2019-01-22T09:38:15.707Z,-2.34
2019-01-22T09:40:44.463Z,-2.31
2019-01-22T09:43:13.270Z,-2.30
2019-01-22T09:45:41.754Z,-2.23
2019-01-22T09:48:10.589Z,-2.16
2019-01-22T09:50:39.089Z,-2.08
2019-01-22T09:53:07.848Z,-2.06
2019-01-22T09:55:36.597Z,-1.98
2019-01-22T09:58:05.477Z,-1.91
2019-01-22T10:00:34.313Z,-1.89
2019-01-22T10:03:02.823Z,-1.83
2019-01-22T10:05:31.258Z,-1.79
2019-01-22T10:07:59.973Z,-1.79
2019-01-22T10:10:28.743Z,-1.77
2019-01-22T10:12:57.510Z,-1.75
2019-01-22T10:15:26.290Z,-1.69
2019-01-22T10:17:55.052Z,-1.69
2019-01-22T10:20:24.712Z,-1.68
2019-01-22T10:22:53.545Z,-1.67
2019-01-22T10:25:22.035Z,-1.69
2019-01-22T10:27:51.314Z,-1.68
2019-01-22T10:30:25.065Z,-1.64
2019-01-22T10:32:53.749Z,-1.63
2019-01-22T10:35:22.321Z,-1.58
2019-01-22T10:37:50.871Z,-1.57
2019-01-22T10:40:22.693Z,-1.55
2019-01-22T10:42:51.251Z,-1.54
2019-01-22T10:45:20.764Z,-1.53
2019-01-22T10:47:49.626Z,-1.55
2019-01-22T10:50:20.745Z,-1.51
2019-01-22T10:52:49.437Z,-1.50
2019-01-22T10:55:18.008Z,-1.48
2019-01-22T10:57:46.779Z,-1.44
2019-01-22T11:00:21.333Z,-1.45
2019-01-22T11:02:50.073Z,-1.46
2019-01-22T11:05:27.241Z,-1.45
2019-01-22T11:07:55.951Z,-1.40
2019-01-22T11:10:24.425Z,-1.45
2019-01-22T11:12:53.125Z,-1.43
2019-01-22T11:15:27.880Z,-1.42
2019-01-22T11:17:52.221Z,-1.40
2019-01-22T11:20:26.330Z,-1.36
2019-01-22T11:22:54.866Z,-1.36
2019-01-22T11:25:26.151Z,-1.34
2019-01-22T11:27:54.858Z,-1.33
2019-01-22T11:30:25.337Z,-1.37
2019-01-22T11:32:55.630Z,-1.36
2019-01-22T11:35:25.107Z,-1.38
2019-01-22T11:37:53.961Z,-1.34
2019-01-22T11:40:43.056Z,-1.32
2019-01-22T11:43:11.551Z,-1.30
2019-01-22T11:45:40.132Z,-1.27
2019-01-22T11:48:09.900Z,-1.25
2019-01-22T11:50:38.650Z,-1.19
2019-01-22T11:53:07.443Z,-1.16
2019-01-22T11:55:36.203Z,-1.10
2019-01-22T11:58:05.651Z,-1.13
2019-01-22T12:00:37.672Z,-1.14
2019-01-22T12:03:06.147Z,-1.15
2019-01-22T12:05:34.973Z,-1.13
2019-01-22T12:08:03.764Z,-1.10
2019-01-22T12:10:32.210Z,-1.04
2019-01-22T12:13:00.998Z,-0.99
2019-01-22T12:15:29.677Z,-0.94
2019-01-22T12:17:58.433Z,-0.89
2019-01-22T12:20:36.049Z,-0.85
2019-01-22T12:23:04.875Z,-0.80
2019-01-22T12:25:33.320Z,-0.77
2019-01-22T12:28:02.206Z,-0.76
2019-01-22T12:30:37.991Z,-0.72
2019-01-22T12:33:06.967Z,-0.65
2019-01-22T12:35:35.739Z,-0.65
2019-01-22T12:38:05.182Z,-0.65
2019-01-22T12:40:33.909Z,-0.62
2019-01-22T12:43:02.665Z,-0.59
2019-01-22T12:45:34.015Z,-0.60
2019-01-22T12:48:02.755Z,-0.61
2019-01-22T12:50:31.596Z,-0.59
2019-01-22T12:53:00.349Z,-0.58
2019-01-22T12:55:28.852Z,-0.55
2019-01-22T12:57:57.264Z,-0.52
2019-01-22T13:00:34.577Z,-0.45
2019-01-22T13:03:03.445Z,-0.40
2019-01-22T13:05:35.174Z,-0.34
2019-01-22T13:08:04.242Z,-0.36
2019-01-22T13:10:32.711Z,-0.38
2019-01-22T13:13:01.487Z,-0.41
2019-01-22T13:15:30.302Z,-0.38
2019-01-22T13:17:59.052Z,-0.38
2019-01-22T13:20:27.894Z,-0.44
2019-01-22T13:22:56.391Z,-0.45
2019-01-22T13:25:25.349Z,-0.46
2019-01-22T13:27:54.049Z,-0.45
2019-01-22T13:30:29.869Z,-0.45
2019-01-22T13:32:59.695Z,-0.38
2019-01-22T13:35:28.235Z,-0.34
2019-01-22T13:37:56.814Z,-0.30
2019-01-22T13:40:25.652Z,-0.27
2019-01-22T13:42:54.400Z,-0.22
2019-01-22T13:45:26.123Z,-0.28
2019-01-22T13:47:55.484Z,-0.34
2019-01-22T13:50:24.750Z,-0.38
2019-01-22T13:52:53.720Z,-0.47
2019-01-22T13:55:24.897Z,-0.53
2019-01-22T13:57:53.663Z,-0.55
2019-01-22T14:00:27.003Z,-0.59
2019-01-22T14:02:56.827Z,-0.61
2019-01-22T14:05:25.675Z,-0.61
2019-01-22T14:07:54.178Z,-0.61
2019-01-22T14:10:23.060Z,-0.62
2019-01-22T14:12:51.784Z,-0.63
2019-01-22T14:15:30.541Z,-0.66
2019-01-22T14:17:59.224Z,-0.69
2019-01-22T14:20:27.920Z,-0.71
2019-01-22T14:22:56.700Z,-0.71
2019-01-22T14:25:25.546Z,-0.70
2019-01-22T14:27:54.408Z,-0.70
2019-01-22T14:30:26.183Z,-0.70
2019-01-22T14:32:54.996Z,-0.66
2019-01-22T14:35:23.836Z,-0.71
2019-01-22T14:37:52.388Z,-0.73
2019-01-22T14:40:20.988Z,-0.75
2019-01-22T14:42:49.463Z,-0.77
2019-01-22T14:45:20.205Z,-0.77
2019-01-22T14:47:48.998Z,-0.79
2019-01-22T14:50:20.789Z,-0.81
2019-01-22T14:55:40.774Z,-0.78
2019-01-22T14:58:09.589Z,-0.83
2019-01-22T15:00:38.363Z,-0.83
2019-01-22T15:03:07.396Z,-0.82
2019-01-22T15:05:35.847Z,-0.82
2019-01-22T15:08:04.635Z,-0.81
2019-01-22T15:10:33.137Z,-0.83
2019-01-22T15:13:01.936Z,-0.85
2019-01-22T15:15:30.799Z,-0.86
2019-01-22T15:17:59.638Z,-0.86
2019-01-22T15:20:28.495Z,-0.86
2019-01-22T15:22:57.245Z,-0.87
2019-01-22T15:25:26.071Z,-0.91
2019-01-22T15:27:54.887Z,-0.94
2019-01-22T15:30:32.099Z,-0.95
2019-01-22T15:33:00.966Z,-0.98
2019-01-22T15:35:29.728Z,-0.97
2019-01-22T15:37:59.951Z,-0.99
2019-01-22T15:40:30.299Z,-1.01
2019-01-22T15:42:59.066Z,-1.01
2019-01-22T15:45:27.889Z,-1.02
2019-01-22T15:47:56.838Z,-1.02
2019-01-22T15:50:25.605Z,-1.02
2019-01-22T15:52:54.407Z,-1.06
2019-01-22T15:55:28.767Z,-1.08
2019-01-22T15:57:57.704Z,-1.07
2019-01-22T16:00:27.841Z,-1.06
2019-01-22T16:02:56.619Z,-1.05
2019-01-22T16:05:25.142Z,-1.07
2019-01-22T16:07:53.990Z,-1.09
2019-01-22T16:10:22.859Z,-1.11
2019-01-22T16:12:51.647Z,-1.12
2019-01-22T16:15:22.655Z,-1.13
2019-01-22T16:17:51.744Z,-1.15
2019-01-22T16:20:22.689Z,-1.16
2019-01-22T16:22:51.526Z,-1.16
2019-01-22T16:25:20.342Z,-1.17
2019-01-22T16:27:49.082Z,-1.17
2019-01-22T16:30:22.710Z,-1.18
2019-01-22T16:32:51.268Z,-1.18
2019-01-22T16:35:21.449Z,-1.18
2019-01-22T16:37:50.256Z,-1.18
2019-01-22T16:40:19.040Z,-1.21
2019-01-22T16:42:48.403Z,-1.24
2019-01-22T16:45:25.943Z,-1.27
2019-01-22T16:47:54.740Z,-1.28
2019-01-22T16:50:23.514Z,-1.26
2019-01-22T16:52:52.407Z,-1.26
2019-01-22T16:55:26.998Z,-1.28
2019-01-22T16:57:55.408Z,-1.31
2019-01-22T17:00:29.471Z,-1.36
2019-01-22T17:02:57.970Z,-1.39
2019-01-22T17:05:26.911Z,-1.43
2019-01-22T17:07:55.690Z,-1.48
2019-01-22T17:10:24.451Z,-1.56
2019-01-22T17:12:53.264Z,-1.61
2019-01-22T17:15:21.741Z,-1.59
2019-01-22T17:17:50.532Z,-1.63
2019-01-22T17:20:25.007Z,-1.63
2019-01-22T17:22:53.814Z,-1.68
2019-01-22T17:25:22.528Z,-1.69
2019-01-22T17:27:51.197Z,-1.68
2019-01-22T17:30:21.561Z,-1.69
2019-01-22T17:32:54.992Z,-1.66
2019-01-22T17:35:24.733Z,-1.71
2019-01-22T17:37:53.404Z,-1.70
2019-01-22T17:40:21.866Z,-1.72
2019-01-22T17:42:50.544Z,-1.74
2019-01-22T17:45:19.470Z,-1.77
2019-01-22T17:47:48.164Z,-1.77
2019-01-22T17:50:17.541Z,-1.78
2019-01-22T17:52:46.341Z,-1.78
2019-01-22T17:55:15.444Z,-1.78
2019-01-22T17:57:43.967Z,-1.80
2019-01-22T18:00:19.826Z,-1.79
2019-01-22T18:02:48.347Z,-1.82
2019-01-22T18:05:18.882Z,-1.83
2019-01-22T18:07:48.556Z,-1.83
2019-01-22T18:10:19.200Z,-1.87
2019-01-22T18:12:47.899Z,-1.89
2019-01-22T18:15:17.556Z,-1.88
2019-01-22T18:17:46.323Z,-1.90
2019-01-22T18:20:28.965Z,-1.96
2019-01-22T18:22:57.679Z,-2.01
2019-01-22T18:25:26.460Z,-1.99
2019-01-22T18:27:55.367Z,-2.03
2019-01-22T18:30:25.717Z,-2.08
2019-01-22T18:32:56.704Z,-2.14
2019-01-22T18:35:40.083Z,-2.10
2019-01-22T18:38:08.837Z,-2.14
2019-01-22T18:40:37.614Z,-2.18
2019-01-22T18:43:06.997Z,-2.16
2019-01-22T18:45:35.579Z,-2.18
2019-01-22T18:48:04.479Z,-2.22
2019-01-22T18:50:33.314Z,-2.18
2019-01-22T18:53:02.005Z,-2.20
2019-01-22T18:55:30.448Z,-2.25
2019-01-22T18:57:59.119Z,-2.25
2019-01-22T19:00:27.976Z,-2.24
2019-01-22T19:02:56.495Z,-2.23
2019-01-22T19:05:25.274Z,-2.23
2019-01-22T19:07:53.799Z,-2.30
2019-01-22T19:10:27.541Z,-2.31
2019-01-22T19:12:56.278Z,-2.27
2019-01-22T19:15:25.200Z,-2.25
2019-01-22T19:17:53.946Z,-2.26
2019-01-22T19:20:22.658Z,-2.27
2019-01-22T19:22:51.421Z,-2.26
2019-01-22T19:25:25.742Z,-2.25
2019-01-22T19:27:54.158Z,-2.25
2019-01-22T19:30:25.134Z,-2.29
2019-01-22T19:32:53.624Z,-2.29
2019-01-22T19:35:22.378Z,-2.30
2019-01-22T19:37:51.185Z,-2.30
2019-01-22T19:40:20.179Z,-2.32
2019-01-22T19:42:48.984Z,-2.32
2019-01-22T19:45:28.749Z,-2.35
2019-01-22T19:47:57.238Z,-2.37
2019-01-22T19:50:26.032Z,-2.38
2019-01-22T19:52:55.349Z,-2.39
2019-01-22T19:55:24.028Z,-2.35
2019-01-22T19:57:52.822Z,-2.38
2019-01-22T20:00:23.941Z,-2.30
2019-01-22T20:02:52.729Z,-2.31
2019-01-22T20:05:21.570Z,-2.33
2019-01-22T20:07:50.347Z,-2.32
2019-01-22T20:10:19.117Z,-2.31
2019-01-22T20:12:48.103Z,-2.37
2019-01-22T20:15:21.469Z,-2.37
2019-01-22T20:17:50.289Z,-2.32
2019-01-22T20:20:19.973Z,-2.33
2019-01-22T20:22:48.665Z,-2.36
2019-01-22T20:25:18.014Z,-2.28
2019-01-22T20:27:48.181Z,-2.25
2019-01-22T20:30:25.818Z,-2.27
2019-01-22T20:32:54.569Z,-2.32
2019-01-22T20:35:23.385Z,-2.33
2019-01-22T20:37:52.232Z,-2.31
2019-01-22T20:40:21.015Z,-2.31
2019-01-22T20:42:49.417Z,-2.33
2019-01-22T20:45:21.020Z,-2.32
2019-01-22T20:47:49.506Z,-2.37
2019-01-22T20:50:19.461Z,-2.36
2019-01-22T20:52:48.440Z,-2.37
2019-01-22T20:55:22.247Z,-2.36
2019-01-22T20:57:54.755Z,-2.37
2019-01-22T21:00:23.576Z,-2.38
2019-01-22T21:02:52.520Z,-2.36
2019-01-22T21:05:22.888Z,-2.36
2019-01-22T21:07:51.434Z,-2.40
2019-01-22T21:10:23.075Z,-2.36
2019-01-22T21:12:51.493Z,-2.36
2019-01-22T21:15:20.291Z,-2.37
2019-01-22T21:17:49.228Z,-2.38
2019-01-22T21:20:21.852Z,-2.36
2019-01-22T21:22:50.699Z,-2.37
2019-01-22T21:25:21.719Z,-2.38
2019-01-22T21:27:50.767Z,-2.35
2019-01-22T21:30:27.574Z,-2.37
2019-01-22T21:32:57.604Z,-2.38
2019-01-22T21:35:27.423Z,-2.33
2019-01-22T21:37:55.905Z,-2.36
2019-01-22T21:40:24.537Z,-2.38
2019-01-22T21:42:53.302Z,-2.38
2019-01-22T21:45:24.371Z,-2.35
2019-01-22T21:47:53.261Z,-2.38
2019-01-22T21:50:22.078Z,-2.37
2019-01-22T21:52:50.536Z,-2.37
2019-01-22T21:55:21.747Z,-2.32
2019-01-22T21:57:50.327Z,-2.31
2019-01-22T22:00:28.490Z,-2.33
2019-01-22T22:02:57.382Z,-2.38
2019-01-22T22:05:28.898Z,-2.37
2019-01-22T22:07:57.813Z,-2.39
2019-01-22T22:10:27.176Z,-2.39
2019-01-22T22:12:55.652Z,-2.36
2019-01-22T22:15:26.181Z,-2.34
2019-01-22T22:17:54.653Z,-2.37
2019-01-22T22:20:23.413Z,-2.38
2019-01-22T22:22:51.909Z,-2.38
2019-01-22T22:25:23.980Z,-2.38
2019-01-22T22:27:52.837Z,-2.33
2019-01-22T22:30:27.275Z,-2.32
2019-01-22T22:32:55.956Z,-2.28
2019-01-22T22:35:24.522Z,-2.29
2019-01-22T22:37:53.261Z,-2.32
2019-01-22T22:40:22.781Z,-2.31
2019-01-22T22:42:51.346Z,-2.32
2019-01-22T22:45:23.096Z,-2.37
2019-01-22T22:47:52.331Z,-2.36
2019-01-22T22:50:26.107Z,-2.36
2019-01-22T22:52:54.892Z,-2.31
2019-01-22T22:55:23.644Z,-2.32
2019-01-22T22:57:52.399Z,-2.33
2019-01-22T23:00:40.028Z,-2.32
2019-01-22T23:03:08.975Z,-2.33
2019-01-22T23:05:38.441Z,-2.31
2019-01-22T23:08:06.936Z,-2.30
2019-01-22T23:10:35.789Z,-2.30
2019-01-22T23:13:05.020Z,-2.28
2019-01-22T23:15:33.666Z,-2.28
2019-01-22T23:18:02.175Z,-2.28
2019-01-22T23:20:30.649Z,-2.28
2019-01-22T23:22:59.078Z,-2.27
2019-01-22T23:25:27.489Z,-2.26
2019-01-22T23:27:55.992Z,-2.28
2019-01-22T23:30:24.755Z,-2.26
2019-01-22T23:32:54.832Z,-2.25
2019-01-22T23:35:23.643Z,-2.28
2019-01-22T23:37:52.101Z,-2.28
2019-01-22T23:40:20.960Z,-2.28
2019-01-22T23:42:49.713Z,-2.26
2019-01-22T23:45:18.543Z,-2.25
2019-01-22T23:47:47.271Z,-2.27
2019-01-22T23:50:16.406Z,-2.22
2019-01-22T23:52:45.232Z,-2.20
2019-01-22T23:55:19.433Z,-2.20
2019-01-22T23:57:48.206Z,-2.19
